Time;durP1;ratioP1;P1;durP2;ratioP2;P2;SDS_P1;SDS_P2;PMS_P1;PMS_P2;Temp;Humidity;BMP_temperature;BMP_pressure;BME280_temperature;BME280_humidity;BME280_pressure;Samples;Min_cycle;Max_cycle;Signal;HPM_P1;HPM_P2
2022/07/10 00:00:17;;;;;;;0.00;0.00;;;13.40;99.90;;;;;;5053320;28;20049;-82
2022/07/10 00:02:43;;;;;;;0.00;0.00;;;13.30;99.90;;;;;;5053344;28;20049;-82
2022/07/10 00:05:10;;;;;;;0.00;0.00;;;13.40;99.90;;;;;;5053203;28;20224;-82
2022/07/10 00:07:35;;;;;;;0.00;0.00;;;13.30;99.90;;;;;;5036360;28;20052;-82
2022/07/10 00:10:05;;;;;;;0.28;0.28;;;13.30;99.90;;;;;;5053120;28;20041;-79
2022/07/10 00:12:30;;;;;;;0.00;0.00;;;13.20;99.90;;;;;;5036363;28;20059;-82
2022/07/10 00:14:56;;;;;;;0.00;0.00;;;13.20;99.90;;;;;;5053089;28;20119;-80
2022/07/10 00:17:22;;;;;;;0.00;0.00;;;13.20;99.90;;;;;;5053054;28;20102;-80
2022/07/10 00:19:47;;;;;;;0.13;0.10;;;13.20;99.90;;;;;;5053322;28;20033;-81
2022/07/10 00:22:13;;;;;;;0.00;0.00;;;13.20;99.90;;;;;;5052680;28;20053;-82
2022/07/10 00:24:39;;;;;;;0.00;0.00;;;13.20;99.90;;;;;;5052795;28;20132;-82
2022/07/10 00:27:05;;;;;;;0.00;0.00;;;13.20;99.90;;;;;;5036166;28;20051;-82
2022/07/10 00:29:30;;;;;;;0.00;0.00;;;13.30;99.90;;;;;;5052597;28;20052;-81
2022/07/10 00:31:56;;;;;;;0.00;0.00;;;13.30;99.90;;;;;;5052867;28;20424;-82
2022/07/10 00:34:21;;;;;;;0.00;0.00;;;13.30;99.90;;;;;;5052965;28;20470;-81
2022/07/10 00:36:47;;;;;;;0.00;0.00;;;13.20;99.90;;;;;;5052838;28;20095;-81
2022/07/10 00:39:13;;;;;;;0.13;0.13;;;13.20;99.90;;;;;;5052771;28;20045;-81
2022/07/10 00:41:38;;;;;;;0.00;0.00;;;13.20;99.90;;;;;;5052781;28;20045;-81
2022/07/10 00:44:04;;;;;;;0.00;0.00;;;13.20;99.90;;;;;;5052608;28;20056;-81
2022/07/10 00:46:31;;;;;;;0.00;0.00;;;13.20;99.90;;;;;;5036411;28;20147;-81
2022/07/10 00:48:58;;;;;;;0.00;0.00;;;13.20;99.90;;;;;;5035458;28;20484;-81
2022/07/10 00:51:29;;;;;;;0.00;0.00;;;13.30;99.90;;;;;;5052671;28;20091;-82
2022/07/10 00:53:56;;;;;;;0.00;0.00;;;13.20;99.90;;;;;;5035839;28;20095;-82
2022/07/10 00:56:24;;;;;;;0.00;0.00;;;13.20;99.90;;;;;;5052665;28;20055;-80
2022/07/10 00:58:50;;;;;;;0.00;0.00;;;13.10;99.90;;;;;;5035915;28;20041;-80
2022/07/10 01:01:16;;;;;;;0.25;0.10;;;13.10;99.90;;;;;;5052494;28;20049;-81
2022/07/10 01:03:45;;;;;;;0.38;0.00;;;13.10;99.90;;;;;;5036118;28;20136;-82
2022/07/10 01:06:12;;;;;;;0.00;0.00;;;13.10;99.90;;;;;;5035964;28;20049;-81
2022/07/10 01:08:37;;;;;;;0.00;0.00;;;13.10;99.90;;;;;;5035775;28;20041;-81
2022/07/10 01:11:04;;;;;;;0.00;0.00;;;13.10;99.90;;;;;;5052297;28;20060;-82
2022/07/10 01:13:29;;;;;;;0.00;0.00;;;13.20;99.90;;;;;;5052543;28;20052;-81
2022/07/10 01:15:56;;;;;;;0.00;0.00;;;13.20;99.90;;;;;;5036281;28;20053;-80
2022/07/10 01:18:22;;;;;;;0.00;0.00;;;13.20;99.90;;;;;;5052466;28;20079;-81
2022/07/10 01:20:57;;;;;;;0.32;0.10;;;13.20;99.90;;;;;;5052519;28;20052;-82
2022/07/10 01:23:23;;;;;;;0.00;0.00;;;13.10;99.90;;;;;;5052197;28;20543;-82
2022/07/10 01:25:50;;;;;;;0.00;0.00;;;13.20;99.90;;;;;;5052412;28;20041;-81
2022/07/10 01:28:16;;;;;;;0.00;0.00;;;13.20;99.90;;;;;;5052211;28;20084;-80
2022/07/10 01:30:42;;;;;;;0.00;0.00;;;13.20;99.90;;;;;;5052272;28;20496;-80
2022/07/10 01:33:08;;;;;;;0.00;0.00;;;13.20;99.90;;;;;;5036235;28;20115;-80
2022/07/10 01:35:34;;;;;;;0.00;0.00;;;13.20;99.90;;;;;;5054565;28;20052;-80
2022/07/10 01:38:00;;;;;;;0.05;0.00;;;13.20;99.90;;;;;;5055603;28;20047;-80
2022/07/10 01:40:25;;;;;;;0.00;0.00;;;13.20;99.90;;;;;;5039000;28;20107;-79
2022/07/10 01:42:51;;;;;;;0.17;0.17;;;13.20;99.90;;;;;;5037322;28;20057;-79
2022/07/10 01:45:17;;;;;;;1.48;0.28;;;13.20;99.90;;;;;;5055277;28;20037;-80
2022/07/10 01:47:43;;;;;;;1.02;0.20;;;13.20;99.90;;;;;;5039203;28;20056;-80
2022/07/10 01:50:09;;;;;;;0.00;0.00;;;13.20;99.90;;;;;;5055907;28;20095;-80
2022/07/10 01:52:35;;;;;;;0.00;0.00;;;13.10;99.90;;;;;;5055475;28;20056;-80
2022/07/10 01:55:01;;;;;;;0.00;0.00;;;13.20;99.90;;;;;;5055553;28;20045;-80
2022/07/10 01:57:27;;;;;;;0.00;0.00;;;13.20;99.90;;;;;;5055641;28;20056;-80
2022/07/10 01:59:53;;;;;;;0.00;0.00;;;13.20;99.90;;;;;;5055576;28;20061;-80
2022/07/10 02:02:19;;;;;;;0.00;0.00;;;13.20;99.90;;;;;;5055652;28;20041;-82
2022/07/10 02:04:45;;;;;;;0.00;0.00;;;13.20;99.90;;;;;;5039019;28;20055;-80
2022/07/10 02:07:12;;;;;;;0.00;0.00;;;13.20;99.90;;;;;;5038697;28;20131;-80
2022/07/10 02:09:39;;;;;;;1.10;0.85;;;13.10;99.90;;;;;;5038911;28;20495;-80
2022/07/10 02:12:08;;;;;;;0.00;0.00;;;13.10;99.90;;;;;;5056091;28;20051;-80
2022/07/10 02:14:34;;;;;;;0.00;0.00;;;13.10;99.90;;;;;;5055336;28;20098;-80
2022/07/10 02:17:00;;;;;;;0.00;0.00;;;13.00;99.90;;;;;;5038699;28;20048;-80
2022/07/10 02:19:26;;;;;;;0.00;0.00;;;13.00;99.90;;;;;;5038693;28;20040;-80
2022/07/10 02:21:51;;;;;;;0.00;0.00;;;12.90;99.90;;;;;;5038640;28;20053;-80
2022/07/10 02:24:17;;;;;;;0.00;0.00;;;12.90;99.90;;;;;;5055153;28;20558;-82
2022/07/10 02:26:43;;;;;;;0.00;0.00;;;12.90;99.90;;;;;;5038583;28;20047;-80
2022/07/10 02:29:09;;;;;;;0.25;0.25;;;12.80;99.90;;;;;;5054908;28;20040;-80
2022/07/10 02:31:40;;;;;;;0.00;0.00;;;12.80;99.90;;;;;;5055269;28;20064;-80
2022/07/10 02:34:07;;;;;;;0.00;0.00;;;12.70;99.90;;;;;;5038093;28;20131;-80
2022/07/10 02:36:32;;;;;;;0.00;0.00;;;12.70;99.90;;;;;;5038391;28;20094;-80
2022/07/10 02:38:58;;;;;;;0.00;0.00;;;12.60;99.90;;;;;;5055025;28;20057;-80
2022/07/10 02:41:24;;;;;;;0.00;0.00;;;12.60;99.90;;;;;;5055677;28;20060;-80
2022/07/10 02:43:50;;;;;;;0.00;0.00;;;12.50;99.90;;;;;;5054986;28;20091;-80
2022/07/10 02:46:16;;;;;;;0.00;0.00;;;12.50;99.90;;;;;;5054914;28;20138;-80
2022/07/10 02:48:41;;;;;;;0.00;0.00;;;12.40;99.90;;;;;;5037631;28;20064;-80
2022/07/10 02:51:07;;;;;;;0.00;0.00;;;12.30;99.90;;;;;;5037994;28;20063;-80
2022/07/10 02:53:33;;;;;;;0.00;0.00;;;12.20;99.90;;;;;;5038005;28;20149;-80
2022/07/10 02:55:58;;;;;;;0.00;0.00;;;12.20;99.90;;;;;;5038252;28;20045;-80
2022/07/10 02:58:24;;;;;;;0.00;0.00;;;12.20;99.90;;;;;;5038198;28;20045;-80
2022/07/10 03:00:50;;;;;;;5.00;0.68;;;12.20;99.90;;;;;;5054541;28;20072;-80
2022/07/10 03:03:17;;;;;;;0.00;0.00;;;12.10;99.90;;;;;;5054369;28;20049;-80
2022/07/10 03:05:46;;;;;;;0.00;0.00;;;12.10;99.90;;;;;;5054651;28;20041;-80
2022/07/10 03:08:12;;;;;;;0.00;0.00;;;12.10;99.90;;;;;;5038094;28;20053;-80
2022/07/10 03:10:38;;;;;;;0.00;0.00;;;12.00;99.90;;;;;;5038070;28;20140;-80
2022/07/10 03:13:04;;;;;;;0.00;0.00;;;12.00;99.90;;;;;;5038131;28;20083;-80
2022/07/10 03:15:30;;;;;;;0.00;0.00;;;12.00;99.90;;;;;;5037863;28;20401;-80
2022/07/10 03:17:56;;;;;;;0.00;0.00;;;12.00;99.90;;;;;;5037692;28;20052;-80
2022/07/10 03:20:21;;;;;;;0.00;0.00;;;12.00;99.90;;;;;;5054083;28;20083;-80
2022/07/10 03:22:47;;;;;;;0.00;0.00;;;12.00;99.90;;;;;;5038176;28;20053;-80
2022/07/10 03:25:13;;;;;;;0.00;0.00;;;12.00;99.90;;;;;;5054007;28;20056;-80
2022/07/10 03:27:39;;;;;;;0.00;0.00;;;12.00;99.90;;;;;;5054016;28;20175;-79
2022/07/10 03:30:05;;;;;;;0.00;0.00;;;12.00;99.90;;;;;;5054290;28;20409;-80
2022/07/10 03:32:31;;;;;;;0.00;0.00;;;12.00;99.90;;;;;;5054306;28;20052;-80
2022/07/10 03:34:57;;;;;;;0.00;0.00;;;11.90;99.90;;;;;;5054555;28;20045;-80
2022/07/10 03:37:23;;;;;;;0.00;0.00;;;11.90;99.90;;;;;;5053348;28;20485;-80
2022/07/10 03:39:49;;;;;;;0.00;0.00;;;11.90;99.90;;;;;;5054450;28;20507;-80
2022/07/10 03:42:15;;;;;;;0.00;0.00;;;11.90;99.90;;;;;;5054132;28;20084;-80
2022/07/10 03:44:40;;;;;;;0.00;0.00;;;11.90;99.90;;;;;;5037360;28;20550;-80
2022/07/10 03:47:06;;;;;;;0.00;0.00;;;11.80;99.90;;;;;;5053913;28;20486;-80
2022/07/10 03:49:32;;;;;;;0.00;0.00;;;11.80;99.90;;;;;;5053434;28;20136;-80
2022/07/10 03:52:02;;;;;;;0.00;0.00;;;11.80;99.90;;;;;;5054530;28;20053;-80
2022/07/10 03:54:29;;;;;;;0.00;0.00;;;11.80;99.90;;;;;;5053909;28;20048;-80
2022/07/10 03:59:40;;;;;;;0.00;0.00;;;11.90;99.90;;;;;;5053647;28;20485;-80
2022/07/10 04:02:06;;;;;;;0.00;0.00;;;12.00;99.90;;;;;;5037016;28;20531;-80
2022/07/10 04:04:32;;;;;;;0.03;0.03;;;12.00;99.90;;;;;;5053366;28;20083;-80
2022/07/10 04:06:57;;;;;;;0.00;0.00;;;12.10;99.90;;;;;;5053310;28;20102;-80
2022/07/10 04:09:23;;;;;;;0.00;0.00;;;12.10;99.90;;;;;;5036225;28;20056;-80
2022/07/10 04:11:49;;;;;;;0.00;0.00;;;12.30;99.90;;;;;;5054183;28;20045;-80
2022/07/10 04:14:14;;;;;;;0.00;0.00;;;12.40;99.90;;;;;;5053062;28;20037;-80
2022/07/10 04:16:40;;;;;;;0.00;0.00;;;12.40;99.90;;;;;;5037423;28;20122;-80
2022/07/10 04:19:06;;;;;;;0.00;0.00;;;12.30;99.90;;;;;;5036476;28;20067;-80
2022/07/10 04:21:31;;;;;;;0.00;0.00;;;12.40;99.90;;;;;;5052857;28;20067;-80
2022/07/10 04:23:58;;;;;;;0.00;0.00;;;12.60;99.90;;;;;;5036567;28;20065;-80
2022/07/10 04:26:23;;;;;;;0.00;0.00;;;12.60;99.90;;;;;;5036252;28;20056;-80
2022/07/10 04:28:49;;;;;;;0.00;0.00;;;12.60;99.90;;;;;;5052507;28;20127;-80
2022/07/10 04:31:15;;;;;;;0.00;0.00;;;12.60;99.90;;;;;;5036211;28;20143;-80
2022/07/10 04:33:40;;;;;;;0.00;0.00;;;12.60;99.90;;;;;;5053531;28;20135;-80
2022/07/10 04:36:06;;;;;;;0.00;0.00;;;12.70;99.90;;;;;;5052771;28;20037;-80
2022/07/10 04:38:32;;;;;;;0.00;0.00;;;12.70;99.90;;;;;;5052842;28;20131;-79
2022/07/10 04:40:58;;;;;;;0.00;0.00;;;12.70;99.90;;;;;;5052289;28;20470;-80
2022/07/10 04:43:24;;;;;;;0.00;0.00;;;12.70;99.90;;;;;;5036116;28;20485;-80
2022/07/10 04:45:50;;;;;;;1.17;0.10;;;12.80;99.90;;;;;;5036186;28;20063;-80
2022/07/10 04:48:16;;;;;;;0.00;0.00;;;12.80;99.90;;;;;;5052730;28;20417;-81
2022/07/10 04:50:42;;;;;;;0.00;0.00;;;12.90;99.90;;;;;;5052634;28;20136;-80
2022/07/10 04:53:08;;;;;;;0.00;0.00;;;12.80;99.90;;;;;;5052736;28;20045;-80
2022/07/10 04:55:33;;;;;;;0.00;0.00;;;12.90;99.90;;;;;;5052809;28;20051;-80
2022/07/10 04:57:59;;;;;;;0.03;0.03;;;13.00;99.90;;;;;;5036049;28;20127;-80
2022/07/10 05:00:25;;;;;;;0.00;0.00;;;12.90;99.90;;;;;;5052594;28;20053;-80
2022/07/10 05:02:51;;;;;;;0.00;0.00;;;13.00;99.90;;;;;;5053264;28;20138;-81
2022/07/10 05:05:16;;;;;;;0.00;0.00;;;13.00;99.90;;;;;;5052956;28;20095;-81
2022/07/10 05:07:42;;;;;;;0.00;0.00;;;13.10;99.90;;;;;;5035868;28;20096;-81
2022/07/10 05:10:08;;;;;;;0.45;0.00;;;13.10;99.90;;;;;;5037655;28;20057;-81
2022/07/10 05:12:34;;;;;;;0.00;0.00;;;13.10;99.90;;;;;;5056614;28;20057;-81
2022/07/10 05:15:00;;;;;;;0.20;0.10;;;13.10;99.90;;;;;;5056283;28;20048;-81
2022/07/10 05:17:31;;;;;;;0.00;0.00;;;13.20;99.90;;;;;;5055900;28;20045;-81
2022/07/10 05:19:57;;;;;;;0.00;0.00;;;13.20;99.90;;;;;;5040205;28;20060;-81
2022/07/10 05:22:24;;;;;;;0.05;0.05;;;13.30;99.90;;;;;;5056506;28;20041;-81
2022/07/10 05:24:49;;;;;;;0.00;0.00;;;13.30;99.90;;;;;;5056423;28;20488;-81
2022/07/10 05:27:18;;;;;;;0.00;0.00;;;13.40;99.90;;;;;;5039681;28;20096;-80
2022/07/10 05:29:44;;;;;;;0.00;0.00;;;13.50;99.90;;;;;;5056225;28;20075;-80
2022/07/10 05:32:10;;;;;;;0.00;0.00;;;13.50;99.90;;;;;;5056384;28;20484;-80
2022/07/10 05:34:35;;;;;;;0.00;0.00;;;13.60;99.90;;;;;;5039619;28;20049;-80
2022/07/10 05:37:05;;;;;;;0.00;0.00;;;13.70;99.90;;;;;;5056006;28;20107;-81
2022/07/10 05:39:30;;;;;;;0.00;0.00;;;13.80;99.90;;;;;;5056045;28;20053;-81
2022/07/10 05:41:57;;;;;;;0.00;0.00;;;13.90;99.90;;;;;;5055995;28;20480;-81
2022/07/10 05:44:23;;;;;;;0.00;0.00;;;14.00;99.90;;;;;;5056516;28;20053;-81
2022/07/10 05:46:49;;;;;;;1.27;0.55;;;14.00;99.90;;;;;;5055956;28;20052;-80
2022/07/10 05:49:14;;;;;;;0.00;0.00;;;14.10;99.90;;;;;;5038746;28;20508;-80
2022/07/10 05:51:40;;;;;;;0.00;0.00;;;14.20;99.90;;;;;;5040035;28;20056;-80
2022/07/10 05:54:06;;;;;;;0.00;0.00;;;14.20;99.90;;;;;;5055754;28;20146;-80
2022/07/10 05:56:32;;;;;;;0.00;0.00;;;14.20;99.90;;;;;;5039078;28;20066;-80
2022/07/10 05:58:57;;;;;;;0.00;0.00;;;14.20;99.90;;;;;;5039360;28;20091;-80
2022/07/10 06:01:23;;;;;;;0.00;0.00;;;14.30;99.90;;;;;;5055678;28;20110;-81
2022/07/10 06:03:49;;;;;;;0.40;0.15;;;14.30;99.90;;;;;;5055302;28;20374;-81
2022/07/10 06:06:15;;;;;;;0.00;0.00;;;14.40;99.90;;;;;;5055623;28;20052;-80
2022/07/10 06:08:42;;;;;;;0.00;0.00;;;14.50;99.90;;;;;;5055069;28;20045;-81
2022/07/10 06:11:07;;;;;;;0.00;0.00;;;14.50;99.90;;;;;;5038718;28;20051;-80
2022/07/10 06:13:33;;;;;;;0.00;0.00;;;14.60;99.90;;;;;;5038720;28;20467;-81
2022/07/10 06:15:59;;;;;;;0.85;0.55;;;14.60;99.90;;;;;;5038906;28;20055;-80
2022/07/10 06:18:24;;;;;;;0.15;0.15;;;14.70;99.90;;;;;;5055723;28;20080;-81
2022/07/10 06:20:50;;;;;;;0.00;0.00;;;14.70;99.90;;;;;;5037947;28;20061;-81
2022/07/10 06:23:15;;;;;;;0.00;0.00;;;14.70;99.90;;;;;;5054468;28;20071;-81
2022/07/10 06:25:41;;;;;;;0.00;0.00;;;14.70;99.90;;;;;;5038574;28;20139;-81
2022/07/10 06:28:07;;;;;;;0.00;0.00;;;14.70;99.90;;;;;;5038354;28;20473;-81
2022/07/10 06:30:32;;;;;;;0.22;0.17;;;14.80;99.90;;;;;;5038612;28;20057;-81
2022/07/10 06:32:58;;;;;;;0.00;0.00;;;14.80;99.90;;;;;;5054376;28;20047;-82
2022/07/10 06:35:24;;;;;;;1.83;0.40;;;14.80;99.90;;;;;;5037966;28;20053;-90
2022/07/10 06:37:49;;;;;;;6.22;0.28;;;14.80;99.90;;;;;;5054359;28;20049;-82
2022/07/10 06:40:16;;;;;;;0.10;0.10;;;14.90;99.90;;;;;;5038126;28;20545;-82
2022/07/10 06:42:41;;;;;;;0.08;0.08;;;14.90;99.90;;;;;;5054785;28;20104;-81
2022/07/10 06:45:08;;;;;;;0.00;0.00;;;14.90;99.90;;;;;;5054845;28;20052;-82
2022/07/10 06:50:17;;;;;;;0.00;0.00;;;15.00;99.90;;;;;;5054941;28;20049;-82
2022/07/10 06:52:43;;;;;;;0.00;0.00;;;15.00;99.90;;;;;;5037991;28;20313;-81
2022/07/10 06:55:09;;;;;;;0.00;0.00;;;15.00;99.90;;;;;;5038753;28;20140;-82
2022/07/10 06:57:35;;;;;;;0.00;0.00;;;15.10;99.90;;;;;;5038569;28;20052;-82
2022/07/10 07:00:01;;;;;;;0.10;0.10;;;15.10;99.90;;;;;;5054490;28;20049;-82
2022/07/10 07:02:27;;;;;;;0.00;0.00;;;15.10;99.90;;;;;;5037839;28;20139;-81
2022/07/10 07:04:53;;;;;;;0.10;0.10;;;15.20;99.90;;;;;;5054638;28;20131;-82
2022/07/10 07:07:18;;;;;;;0.00;0.00;;;15.20;99.90;;;;;;5054383;28;20049;-82
2022/07/10 07:09:44;;;;;;;0.00;0.00;;;15.30;99.90;;;;;;5037829;28;20060;-82
2022/07/10 07:12:10;;;;;;;0.00;0.00;;;15.40;99.90;;;;;;5037667;28;20417;-81
2022/07/10 07:14:36;;;;;;;0.00;0.00;;;15.50;99.90;;;;;;5054679;28;20041;-82
2022/07/10 07:17:06;;;;;;;0.00;0.00;;;15.50;99.90;;;;;;5054219;28;20392;-81
2022/07/10 07:23:09;;;;;;;0.00;0.00;;;15.60;99.90;;;;;;5053612;28;20122;-81
2022/07/10 07:25:06;;;;;;;0.00;0.00;;;15.70;99.90;;;;;;5054211;28;20044;-82
2022/07/10 07:27:34;;;;;;;0.00;0.00;;;15.80;99.90;;;;;;5037392;28;20400;-81
2022/07/10 07:30:10;;;;;;;0.47;0.47;;;15.80;99.90;;;;;;5053661;28;20053;-82
2022/07/10 07:32:37;;;;;;;0.08;0.08;;;15.90;99.90;;;;;;5053051;28;20041;-82
2022/07/10 07:35:04;;;;;;;0.00;0.00;;;15.90;99.90;;;;;;5037484;28;20083;-82
2022/07/10 07:37:37;;;;;;;0.00;0.00;;;16.00;99.90;;;;;;5053780;28;20067;-82
2022/07/10 07:40:04;;;;;;;0.00;0.00;;;16.10;99.90;;;;;;5053858;28;20055;-82
2022/07/10 07:42:29;;;;;;;0.00;0.00;;;16.20;99.90;;;;;;5037206;28;20575;-81
2022/07/10 07:44:55;;;;;;;0.00;0.00;;;16.20;99.90;;;;;;5037267;28;20099;-82
2022/07/10 07:47:21;;;;;;;0.00;0.00;;;16.20;99.90;;;;;;5053311;28;20045;-81
2022/07/10 07:49:46;;;;;;;0.13;0.08;;;16.30;99.90;;;;;;5053185;28;20064;-82
2022/07/10 07:52:14;;;;;;;0.00;0.00;;;16.40;99.90;;;;;;5036826;28;20063;-82
2022/07/10 07:54:40;;;;;;;0.00;0.00;;;16.50;99.90;;;;;;5053479;28;20075;-82
2022/07/10 07:57:06;;;;;;;2.13;0.80;;;16.60;99.90;;;;;;5036794;28;20049;-82
2022/07/10 07:59:32;;;;;;;0.00;0.00;;;16.60;99.90;;;;;;5053436;28;20088;-82
2022/07/10 08:01:57;;;;;;;0.25;0.10;;;16.70;99.90;;;;;;5036788;28;20075;-82
2022/07/10 08:04:23;;;;;;;0.00;0.00;;;16.60;99.90;;;;;;5052870;28;20099;-82
2022/07/10 08:06:51;;;;;;;0.08;0.00;;;16.60;99.90;;;;;;5036609;28;20056;-82
2022/07/10 08:09:18;;;;;;;0.00;0.00;;;16.60;99.90;;;;;;5052781;28;20060;-82
2022/07/10 08:11:44;;;;;;;0.00;0.00;;;16.60;99.90;;;;;;5053171;28;20060;-82
2022/07/10 08:14:10;;;;;;;0.00;0.00;;;16.50;99.90;;;;;;5053932;28;20409;-82
2022/07/10 08:16:35;;;;;;;0.00;0.00;;;16.60;99.90;;;;;;5053035;28;20052;-82
2022/07/10 08:19:01;;;;;;;0.00;0.00;;;16.60;99.90;;;;;;5053172;28;20051;-82
2022/07/10 08:21:27;;;;;;;0.00;0.00;;;16.60;99.90;;;;;;5036624;28;20424;-82
2022/07/10 08:23:53;;;;;;;0.00;0.00;;;16.60;99.90;;;;;;5036601;28;20083;-82
2022/07/10 08:26:19;;;;;;;0.00;0.00;;;16.70;99.90;;;;;;5036248;28;20094;-82
2022/07/10 08:28:45;;;;;;;0.00;0.00;;;16.70;99.90;;;;;;5052661;28;20045;-82
2022/07/10 08:31:11;;;;;;;0.55;0.47;;;16.70;99.90;;;;;;5052708;28;20131;-82
2022/07/10 08:33:36;;;;;;;0.00;0.00;;;16.60;99.90;;;;;;5036332;28;20140;-82
2022/07/10 08:36:03;;;;;;;0.00;0.00;;;16.60;99.90;;;;;;5052818;28;20061;-82
2022/07/10 08:38:29;;;;;;;0.00;0.00;;;16.70;99.90;;;;;;5052893;28;20500;-82
2022/07/10 08:40:58;;;;;;;0.00;0.00;;;16.60;99.90;;;;;;5035941;28;20048;-82
2022/07/10 08:43:25;;;;;;;0.00;0.00;;;16.50;99.90;;;;;;5052618;28;20427;-82
2022/07/10 08:45:53;;;;;;;0.00;0.00;;;16.50;99.90;;;;;;5052281;28;20048;-82
2022/07/10 08:48:23;;;;;;;0.05;0.05;;;16.50;99.90;;;;;;5035418;28;20053;-82
2022/07/10 08:50:52;;;;;;;0.00;0.00;;;16.50;99.90;;;;;;5036130;28;20559;-82
2022/07/10 08:53:29;;;;;;;0.00;0.00;;;16.60;99.90;;;;;;5052602;28;20463;-82
2022/07/10 08:55:55;;;;;;;0.00;0.00;;;16.50;99.90;;;;;;5036535;28;20406;-82
2022/07/10 08:58:22;;;;;;;0.10;0.03;;;16.60;99.90;;;;;;5053150;28;20132;-82
2022/07/10 09:00:48;;;;;;;0.00;0.00;;;16.70;99.90;;;;;;5052578;28;20128;-82
2022/07/10 09:03:14;;;;;;;0.00;0.00;;;16.70;99.90;;;;;;5052669;28;20153;-82
2022/07/10 09:05:40;;;;;;;0.00;0.00;;;16.80;99.90;;;;;;5052487;28;20044;-82
2022/07/10 09:08:23;;;;;;;0.00;0.00;;;16.70;99.90;;;;;;5052250;28;20059;-82
2022/07/10 09:10:50;;;;;;;0.00;0.00;;;16.70;99.90;;;;;;5036186;28;20053;-82
2022/07/10 09:13:16;;;;;;;0.00;0.00;;;16.60;99.90;;;;;;5052513;28;20053;-82
2022/07/10 09:15:48;;;;;;;0.00;0.00;;;16.70;99.90;;;;;;5052353;28;20048;-82
2022/07/10 09:18:19;;;;;;;0.00;0.00;;;16.70;99.90;;;;;;5052493;28;20053;-82
2022/07/10 09:20:46;;;;;;;0.00;0.00;;;16.90;99.90;;;;;;5052398;28;20150;-82
2022/07/10 09:23:17;;;;;;;0.00;0.00;;;16.90;99.90;;;;;;5052172;28;20055;-82
2022/07/10 09:25:43;;;;;;;0.00;0.00;;;17.00;99.90;;;;;;5035894;28;20059;-82
2022/07/10 09:28:09;;;;;;;0.00;0.00;;;17.00;99.90;;;;;;5052385;28;20432;-82
2022/07/10 09:30:37;;;;;;;0.00;0.00;;;16.90;99.90;;;;;;5052392;28;20139;-82
2022/07/10 09:33:25;;;;;;;0.00;0.00;;;16.80;99.90;;;;;;5035811;28;20075;-82
2022/07/10 09:36:18;;;;;;;1.15;0.60;;;16.80;99.90;;;;;;5052801;28;20044;-82
2022/07/10 09:38:44;;;;;;;0.03;0.03;;;16.80;99.90;;;;;;5035521;28;20056;-82
2022/07/10 09:41:22;;;;;;;0.00;0.00;;;16.80;99.90;;;;;;5052313;28;20052;-82
2022/07/10 09:43:50;;;;;;;0.00;0.00;;;16.90;99.90;;;;;;5035756;28;20057;-82
2022/07/10 09:46:17;;;;;;;0.00;0.00;;;17.00;99.90;;;;;;5036017;28;20516;-82
2022/07/10 09:48:43;;;;;;;0.00;0.00;;;17.20;99.90;;;;;;5035006;28;20049;-82
2022/07/10 09:51:10;;;;;;;0.00;0.00;;;17.30;99.90;;;;;;5052225;28;20059;-82
2022/07/10 09:53:40;;;;;;;0.00;0.00;;;17.30;99.90;;;;;;5052114;28;20492;-82
2022/07/10 09:56:08;;;;;;;0.00;0.00;;;17.30;99.90;;;;;;5053424;28;20052;-83
2022/07/10 09:58:37;;;;;;;0.00;0.00;;;17.30;99.90;;;;;;5055706;28;20057;-82
2022/07/10 10:01:08;;;;;;;0.00;0.00;;;17.30;99.90;;;;;;5038734;28;20059;-82
2022/07/10 10:03:35;;;;;;;0.00;0.00;;;17.20;99.90;;;;;;5055341;28;20045;-82
2022/07/10 10:06:14;;;;;;;0.00;0.00;;;17.20;99.90;;;;;;5055778;28;20068;-82
2022/07/10 10:09:28;;;;;;;0.08;0.08;;;17.20;99.90;;;;;;5038659;28;20102;-83
2022/07/10 10:11:59;;;;;;;0.00;0.00;;;17.20;99.90;;;;;;5018012;28;20042;-83
2022/07/10 10:14:27;;;;;;;0.08;0.00;;;17.20;99.90;;;;;;5018218;28;20048;-82
2022/07/10 10:16:55;;;;;;;0.00;0.00;;;17.20;99.90;;;;;;5017977;28;20061;-82
2022/07/10 10:22:08;;;;;;;0.00;0.00;;;17.10;99.90;;;;;;5017868;28;20057;-82
2022/07/10 10:24:34;;;;;;;0.00;0.00;;;17.10;99.90;;;;;;5017770;28;20083;-82
2022/07/10 10:27:01;;;;;;;0.43;0.05;;;17.00;99.90;;;;;;5001568;28;20402;-82
2022/07/10 10:29:27;;;;;;;0.00;0.00;;;17.00;99.90;;;;;;5017163;28;20051;-83
2022/07/10 10:31:54;;;;;;;0.00;0.00;;;17.10;99.90;;;;;;5017656;28;20049;-82
2022/07/10 10:34:55;;;;;;;0.00;0.00;;;17.10;99.90;;;;;;5001477;28;20509;-83
2022/07/10 10:37:37;;;;;;;0.00;0.00;;;17.10;99.90;;;;;;5017653;28;20049;-83
2022/07/10 10:40:05;;;;;;;0.00;0.00;;;17.10;99.90;;;;;;5017520;28;20111;-82
2022/07/10 10:42:43;;;;;;;0.00;0.00;;;17.10;99.90;;;;;;5016121;28;20382;-82
2022/07/10 10:45:32;;;;;;;0.00;0.00;;;17.00;99.90;;;;;;5055079;28;20492;-81
2022/07/10 10:48:01;;;;;;;0.00;0.00;;;16.90;99.90;;;;;;5038123;28;20060;-82
2022/07/10 10:50:45;;;;;;;0.00;0.00;;;16.80;99.90;;;;;;5054875;28;20549;-82
2022/07/10 10:53:15;;;;;;;0.00;0.00;;;16.70;99.90;;;;;;5055429;28;20103;-82
2022/07/10 10:56:01;;;;;;;0.00;0.00;;;16.60;99.90;;;;;;5038249;28;20096;-82
2022/07/10 10:58:38;;;;;;;0.00;0.00;;;16.70;99.90;;;;;;5054276;28;20087;-82
2022/07/10 11:01:32;;;;;;;0.00;0.00;;;16.90;99.90;;;;;;5038162;28;20060;-82
2022/07/10 11:04:04;;;;;;;0.00;0.00;;;17.00;99.90;;;;;;5038167;28;20497;-82
2022/07/10 11:06:59;;;;;;;0.10;0.10;;;17.10;99.90;;;;;;5054692;28;20045;-81
2022/07/10 11:09:31;;;;;;;0.00;0.00;;;17.10;99.90;;;;;;5000423;28;20057;-82
2022/07/10 11:12:05;;;;;;;0.00;0.00;;;17.00;99.90;;;;;;5000773;28;20053;-81
2022/07/10 11:14:33;;;;;;;0.08;0.08;;;16.90;99.90;;;;;;5000547;28;20543;-81
2022/07/10 11:16:59;;;;;;;0.00;0.00;;;16.90;99.90;;;;;;5016732;28;20095;-81
2022/07/10 11:19:29;;;;;;;0.00;0.00;;;16.80;99.90;;;;;;5016890;28;20104;-81
2022/07/10 11:22:30;;;;;;;0.00;0.00;;;16.90;99.90;;;;;;5017462;28;20049;-81
2022/07/10 11:25:22;;;;;;;0.00;0.00;;;17.00;99.90;;;;;;4977636;28;20054;-81
2022/07/10 11:28:08;;;;;;;0.80;0.20;;;17.10;99.90;;;;;;4962202;28;20046;-82
2022/07/10 11:30:53;;;;;;;0.00;0.00;;;17.30;99.90;;;;;;4994210;28;20418;-82
2022/07/10 11:33:20;;;;;;;0.00;0.00;;;17.60;99.90;;;;;;4977808;28;20062;-82
2022/07/10 11:35:48;;;;;;;0.00;0.00;;;17.90;99.90;;;;;;4977951;28;20059;-82
2022/07/10 11:38:22;;;;;;;0.00;0.00;;;18.10;99.90;;;;;;4993627;28;20152;-82
2022/07/10 11:40:48;;;;;;;0.00;0.00;;;18.30;99.90;;;;;;4961023;28;20546;-82
2022/07/10 11:43:16;;;;;;;0.00;0.00;;;18.40;99.90;;;;;;4960820;28;20141;-82
2022/07/10 11:45:43;;;;;;;0.00;0.00;;;18.50;99.90;;;;;;4995658;28;20053;-83
2022/07/10 11:48:23;;;;;;;0.10;0.00;;;18.60;99.90;;;;;;5015749;28;20140;-83
2022/07/10 11:50:49;;;;;;;0.30;0.05;;;18.60;99.90;;;;;;5032821;28;20049;-83
2022/07/10 11:53:25;;;;;;;2.10;0.65;;;18.60;99.90;;;;;;5016283;28;20591;-82
2022/07/10 11:55:52;;;;;;;0.10;0.10;;;18.50;99.90;;;;;;5016393;28;20116;-82
2022/07/10 11:58:19;;;;;;;0.00;0.00;;;18.30;99.90;;;;;;4999891;28;20060;-83
2022/07/10 12:01:05;;;;;;;0.10;0.10;;;18.00;99.90;;;;;;5017957;28;20041;-83
2022/07/10 12:03:31;;;;;;;0.00;0.00;;;17.90;99.90;;;;;;5037213;28;20045;-83
2022/07/10 12:06:05;;;;;;;0.03;0.00;;;17.70;99.90;;;;;;5053888;28;20041;-83
2022/07/10 12:08:45;;;;;;;0.00;0.00;;;17.70;99.90;;;;;;5036924;28;20044;-83
2022/07/10 12:11:17;;;;;;;0.00;0.00;;;17.80;99.90;;;;;;5037089;28;20067;-83
2022/07/10 12:13:44;;;;;;;0.00;0.00;;;18.00;99.90;;;;;;5054088;28;20055;-83
2022/07/10 12:16:11;;;;;;;0.00;0.00;;;18.20;99.90;;;;;;5053875;28;20049;-82
2022/07/10 12:18:37;;;;;;;0.00;0.00;;;18.30;99.90;;;;;;5036293;28;20096;-83
2022/07/10 12:21:03;;;;;;;0.00;0.00;;;18.20;99.90;;;;;;5053671;28;20458;-83
2022/07/10 12:23:30;;;;;;;0.10;0.10;;;18.10;99.90;;;;;;5053270;28;20037;-82
2022/07/10 12:25:56;;;;;;;0.00;0.00;;;18.00;99.90;;;;;;5053301;28;20126;-82
2022/07/10 12:28:22;;;;;;;0.00;0.00;;;17.80;99.90;;;;;;5036681;28;20131;-82
2022/07/10 12:30:49;;;;;;;0.00;0.00;;;17.60;99.90;;;;;;5036531;28;20542;-83
2022/07/10 12:33:18;;;;;;;0.00;0.00;;;17.50;99.90;;;;;;5036493;28;20392;-83
2022/07/10 12:35:55;;;;;;;0.00;0.00;;;17.50;99.90;;;;;;5036708;28;20045;-83
2022/07/10 12:38:25;;;;;;;0.00;0.00;;;17.60;99.90;;;;;;5053060;28;20048;-82
2022/07/10 12:41:05;;;;;;;1.77;0.20;;;17.80;99.90;;;;;;5052736;28;20052;-83
2022/07/10 12:43:31;;;;;;;0.00;0.00;;;18.10;99.90;;;;;;5053090;28;20052;-83
2022/07/10 12:46:18;;;;;;;7.90;0.75;;;18.20;99.90;;;;;;5052903;28;20049;-82
2022/07/10 12:49:00;;;;;;;0.00;0.00;;;18.20;99.90;;;;;;5052496;28;20092;-82
2022/07/10 12:51:28;;;;;;;0.95;0.52;;;18.00;99.90;;;;;;5036899;28;20049;-82
2022/07/10 12:53:54;;;;;;;1.98;0.52;;;17.90;99.90;;;;;;5052382;28;20492;-83
2022/07/10 12:56:35;;;;;;;0.00;0.00;;;17.70;99.90;;;;;;5053020;28;20052;-83
2022/07/10 12:59:03;;;;;;;0.00;0.00;;;17.70;99.90;;;;;;5052769;28;20041;-82
2022/07/10 13:01:39;;;;;;;0.25;0.08;;;17.70;99.90;;;;;;5036171;28;20053;-82
2022/07/10 13:04:05;;;;;;;0.00;0.00;;;17.70;99.90;;;;;;5053134;28;20254;-83